Time;durP1;ratioP1;P1;durP2;ratioP2;P2;SDS_P1;SDS_P2;PMS_P1;PMS_P2;Temp;Humidity;BMP_temperature;BMP_pressure;BME280_temperature;BME280_humidity;BME280_pressure;Samples;Min_cycle;Max_cycle;Signal;HPM_P1;HPM_P2
2024/01/13 00:01:47;;;;;;;2.70;2.37;;;0.80;99.90;;;;;;7388650;19;20227;-76
2024/01/13 00:04:14;;;;;;;3.23;2.57;;;0.80;99.90;;;;;;7388580;19;20159;-77
2024/01/13 00:06:40;;;;;;;2.20;1.83;;;0.80;99.90;;;;;;7390200;19;20138;-77
2024/01/13 00:09:06;;;;;;;2.60;2.40;;;0.80;99.90;;;;;;7387323;19;20139;-77
2024/01/13 00:11:32;;;;;;;3.47;3.03;;;0.80;99.90;;;;;;7386901;19;20157;-78
2024/01/13 00:13:58;;;;;;;3.13;2.83;;;0.80;99.90;;;;;;7387227;19;20152;-78
2024/01/13 00:16:24;;;;;;;2.50;2.20;;;0.80;99.90;;;;;;7388107;19;20123;-78
2024/01/13 00:18:50;;;;;;;3.20;2.23;;;0.50;99.90;;;;;;7388821;19;20138;-78
2024/01/13 00:21:15;;;;;;;3.40;2.00;;;0.60;99.90;;;;;;7386115;19;20142;-77
2024/01/13 00:23:41;;;;;;;2.97;2.73;;;0.70;99.90;;;;;;7388598;19;20527;-77
2024/01/13 00:26:07;;;;;;;4.13;1.73;;;0.80;99.90;;;;;;7386934;19;20755;-77
2024/01/13 00:28:33;;;;;;;7.43;3.30;;;0.80;99.90;;;;;;7387393;19;20743;-77
2024/01/13 00:30:58;;;;;;;2.70;2.47;;;0.80;99.90;;;;;;7387344;19;20142;-79
2024/01/13 00:33:24;;;;;;;2.43;1.90;;;0.70;99.90;;;;;;7386889;19;20131;-77
2024/01/13 00:35:50;;;;;;;1.97;1.87;;;0.70;99.90;;;;;;7386608;19;20147;-77
2024/01/13 00:38:16;;;;;;;2.70;2.53;;;0.70;99.90;;;;;;7386933;19;20651;-77
2024/01/13 00:40:42;;;;;;;4.27;1.90;;;0.80;99.90;;;;;;7385679;19;20447;-77
2024/01/13 00:43:09;;;;;;;1.67;1.57;;;0.80;99.90;;;;;;7386810;19;20134;-78
2024/01/13 00:45:34;;;;;;;4.97;3.23;;;0.90;99.90;;;;;;7386626;19;20154;-78
2024/01/13 00:48:01;;;;;;;4.30;3.23;;;0.90;99.90;;;;;;7393283;19;20175;-79
2024/01/13 00:50:27;;;;;;;2.47;2.27;;;0.90;99.90;;;;;;7390244;19;20592;-78
2024/01/13 00:52:53;;;;;;;2.30;2.20;;;0.80;99.90;;;;;;7396588;19;20714;-79
2024/01/13 00:55:19;;;;;;;2.20;2.03;;;0.80;99.90;;;;;;7393594;19;20150;-78
2024/01/13 00:57:45;;;;;;;2.30;2.07;;;0.90;99.90;;;;;;7394209;19;20135;-79
2024/01/13 01:00:11;;;;;;;4.77;3.13;;;0.90;99.90;;;;;;7391710;19;20143;-77
2024/01/13 01:02:37;;;;;;;6.13;4.07;;;0.90;99.90;;;;;;7396645;19;20249;-77
2024/01/13 01:05:03;;;;;;;1.67;1.57;;;0.80;99.90;;;;;;7390454;19;20159;-79
2024/01/13 01:07:29;;;;;;;3.23;2.43;;;0.80;99.90;;;;;;7394233;19;20150;-78
2024/01/13 01:09:55;;;;;;;3.50;3.20;;;0.80;99.90;;;;;;7392813;19;20483;-78
2024/01/13 01:12:20;;;;;;;3.80;2.70;;;0.80;99.90;;;;;;7393508;19;20150;-78
2024/01/13 01:14:46;;;;;;;3.47;3.17;;;0.80;99.90;;;;;;7393610;19;20158;-77
2024/01/13 01:17:13;;;;;;;3.00;2.53;;;0.80;99.90;;;;;;7392275;19;20146;-77
2024/01/13 01:19:39;;;;;;;3.20;2.90;;;0.90;99.90;;;;;;7390835;19;20154;-77
2024/01/13 01:22:04;;;;;;;2.23;2.03;;;0.90;99.90;;;;;;7394928;19;20135;-77
2024/01/13 01:24:30;;;;;;;5.57;3.33;;;0.90;99.90;;;;;;7391940;19;20162;-77
2024/01/13 01:26:57;;;;;;;3.93;3.63;;;0.90;99.90;;;;;;7394180;19;20138;-78
2024/01/13 01:29:23;;;;;;;2.90;2.67;;;0.90;99.90;;;;;;7391359;19;20623;-76
2024/01/13 01:31:49;;;;;;;11.47;3.67;;;0.90;99.90;;;;;;7394404;19;20139;-77
2024/01/13 01:34:14;;;;;;;2.70;2.50;;;0.90;99.90;;;;;;7391710;19;20139;-78
2024/01/13 01:36:40;;;;;;;3.13;2.13;;;0.80;99.90;;;;;;7393459;19;20142;-79
2024/01/13 01:39:09;;;;;;;4.13;2.50;;;0.80;99.90;;;;;;7390797;19;20142;-78
2024/01/13 01:41:35;;;;;;;4.43;2.67;;;0.80;99.90;;;;;;7393750;19;20146;-77
2024/01/13 01:44:03;;;;;;;3.00;2.10;;;0.80;99.90;;;;;;7392048;19;20134;-77
2024/01/13 01:46:31;;;;;;;2.50;2.30;;;0.80;99.90;;;;;;7394049;19;20687;-77
2024/01/13 01:48:59;;;;;;;2.60;2.40;;;0.80;99.90;;;;;;7388900;19;20193;-78
2024/01/13 01:51:26;;;;;;;1.70;1.50;;;0.60;99.90;;;;;;7393549;19;20139;-78
2024/01/13 01:53:52;;;;;;;3.33;3.03;;;-0.20;99.90;;;;;;7391456;19;20134;-76
2024/01/13 01:56:22;;;;;;;1.70;1.60;;;-0.10;99.90;;;;;;7394309;19;20253;-78
2024/01/13 01:58:51;;;;;;;1.63;1.53;;;0.20;99.90;;;;;;7391718;19;20746;-77
2024/01/13 02:01:18;;;;;;;3.37;2.17;;;0.50;99.90;;;;;;7393723;19;20560;-77
2024/01/13 02:03:45;;;;;;;2.27;2.00;;;0.60;99.90;;;;;;7393300;19;20151;-76
2024/01/13 02:06:10;;;;;;;3.27;1.97;;;0.60;99.90;;;;;;7385068;19;20151;-77
2024/01/13 02:08:37;;;;;;;7.23;2.37;;;0.60;99.90;;;;;;7384720;19;20159;-77
2024/01/13 02:11:03;;;;;;;3.47;1.80;;;0.70;99.90;;;;;;7392900;19;20133;-77
2024/01/13 02:13:29;;;;;;;4.23;1.67;;;0.80;99.90;;;;;;7392112;19;20494;-77
2024/01/13 02:15:55;;;;;;;5.43;3.83;;;0.70;99.90;;;;;;7392400;19;20221;-77
2024/01/13 02:18:21;;;;;;;1.77;1.60;;;0.70;99.90;;;;;;7392442;19;20135;-78
2024/01/13 02:20:48;;;;;;;2.83;2.17;;;0.80;99.90;;;;;;7392893;19;20624;-78
2024/01/13 02:23:13;;;;;;;1.90;1.80;;;0.90;99.90;;;;;;7390253;19;20221;-77
2024/01/13 02:25:39;;;;;;;2.27;2.07;;;0.90;99.90;;;;;;7393063;19;20177;-77
2024/01/13 02:28:05;;;;;;;1.87;1.27;;;0.90;99.90;;;;;;7392804;19;20147;-78
2024/01/13 02:30:32;;;;;;;2.97;2.70;;;1.00;99.90;;;;;;7392380;19;20151;-77
2024/01/13 02:32:59;;;;;;;4.03;3.43;;;1.00;99.90;;;;;;7390836;19;20199;-78
2024/01/13 02:35:25;;;;;;;2.13;1.93;;;0.90;99.90;;;;;;7391129;19;20158;-79
2024/01/13 02:37:50;;;;;;;3.67;2.30;;;0.90;99.90;;;;;;7390095;19;20138;-76
2024/01/13 02:40:16;;;;;;;2.10;1.93;;;0.90;99.90;;;;;;7390567;19;20135;-77
2024/01/13 02:42:42;;;;;;;2.40;1.67;;;0.90;99.90;;;;;;7388863;19;20130;-77
2024/01/13 02:45:08;;;;;;;2.87;1.57;;;0.90;99.90;;;;;;7389395;19;20131;-78
2024/01/13 02:47:39;;;;;;;3.73;2.23;;;0.80;99.90;;;;;;7389189;19;20591;-79
2024/01/13 02:50:08;;;;;;;2.50;2.30;;;0.90;99.90;;;;;;7387629;19;20191;-79
2024/01/13 02:52:33;;;;;;;2.23;1.70;;;0.90;99.90;;;;;;7389178;19;20138;-79
2024/01/13 02:54:59;;;;;;;2.53;2.33;;;1.00;99.90;;;;;;7391283;19;20145;-78
2024/01/13 02:57:29;;;;;;;6.10;4.20;;;1.00;99.90;;;;;;7388181;19;21370;-79
2024/01/13 02:59:54;;;;;;;2.77;1.67;;;1.10;99.90;;;;;;7388822;19;20130;-80
2024/01/13 03:02:20;;;;;;;2.03;1.80;;;1.00;99.90;;;;;;7387582;19;20146;-80
2024/01/13 03:04:46;;;;;;;3.20;2.57;;;1.00;99.90;;;;;;7389784;19;20161;-80
2024/01/13 03:07:11;;;;;;;1.93;1.73;;;1.10;99.90;;;;;;7387650;19;20130;-79
2024/01/13 03:09:37;;;;;;;3.70;2.70;;;1.10;99.90;;;;;;7386925;19;20675;-80
2024/01/13 03:12:03;;;;;;;3.73;2.90;;;1.10;99.90;;;;;;7386973;19;20137;-79
2024/01/13 03:14:30;;;;;;;4.57;3.13;;;1.10;99.90;;;;;;7386304;19;20139;-79
2024/01/13 03:16:55;;;;;;;2.23;2.03;;;1.10;99.90;;;;;;7389277;19;20127;-78
2024/01/13 03:19:21;;;;;;;2.27;1.20;;;1.00;99.90;;;;;;7387234;19;20149;-79
2024/01/13 03:21:47;;;;;;;4.13;2.13;;;1.00;99.90;;;;;;7389993;19;20146;-79
2024/01/13 03:24:12;;;;;;;4.03;2.17;;;1.00;99.90;;;;;;7387192;19;20139;-80
2024/01/13 03:26:38;;;;;;;3.10;1.83;;;1.10;99.90;;;;;;7388360;19;20138;-79
2024/01/13 03:29:04;;;;;;;3.77;2.97;;;1.10;99.90;;;;;;7387045;19;20123;-79
2024/01/13 03:31:30;;;;;;;4.63;2.03;;;1.00;99.90;;;;;;7387564;19;20600;-78
2024/01/13 03:33:55;;;;;;;2.37;2.17;;;1.10;99.90;;;;;;7389226;19;20135;-81
2024/01/13 03:36:21;;;;;;;2.77;2.47;;;1.10;99.90;;;;;;7390151;19;20131;-79
2024/01/13 03:38:47;;;;;;;1.50;1.40;;;1.20;99.90;;;;;;7388455;19;20151;-80
2024/01/13 03:41:14;;;;;;;3.80;3.10;;;1.10;99.90;;;;;;7388866;19;20144;-79
2024/01/13 03:43:40;;;;;;;3.27;2.97;;;1.10;99.90;;;;;;7389722;19;20442;-80
2024/01/13 03:46:06;;;;;;;2.07;1.87;;;1.00;99.90;;;;;;7388349;19;20210;-79
2024/01/13 03:48:32;;;;;;;2.00;1.90;;;1.00;99.90;;;;;;7390438;19;20161;-78
2024/01/13 03:50:59;;;;;;;4.90;1.97;;;1.00;99.90;;;;;;7388046;19;20138;-80
2024/01/13 03:53:25;;;;;;;1.50;1.40;;;1.00;99.90;;;;;;7389180;19;20141;-78
2024/01/13 03:55:51;;;;;;;1.67;1.57;;;1.00;99.90;;;;;;7381685;19;20222;-78
2024/01/13 03:58:16;;;;;;;2.90;1.87;;;1.00;99.90;;;;;;7385394;19;20166;-78
2024/01/13 04:00:42;;;;;;;3.50;2.90;;;1.10;99.90;;;;;;7386594;19;20131;-79
2024/01/13 04:03:08;;;;;;;1.80;1.23;;;0.70;99.90;;;;;;7387873;19;20162;-79
2024/01/13 04:05:34;;;;;;;2.93;1.87;;;0.80;99.90;;;;;;7385979;19;20719;-78
2024/01/13 04:08:00;;;;;;;2.67;2.10;;;0.70;99.90;;;;;;7389313;19;20901;-78
2024/01/13 04:10:26;;;;;;;2.23;1.87;;;0.90;99.90;;;;;;7387157;19;20217;-79
2024/01/13 04:12:51;;;;;;;1.57;1.43;;;0.90;99.90;;;;;;7388186;19;20591;-79
2024/01/13 04:15:17;;;;;;;5.27;2.17;;;1.00;99.90;;;;;;7386621;19;20153;-79
2024/01/13 04:17:43;;;;;;;2.40;2.30;;;1.00;99.90;;;;;;7388674;19;20152;-78
2024/01/13 04:20:09;;;;;;;3.20;2.20;;;1.00;99.90;;;;;;7389230;19;20618;-78
2024/01/13 04:22:35;;;;;;;2.50;2.30;;;1.00;99.90;;;;;;7392661;19;20222;-78
2024/01/13 04:25:01;;;;;;;2.47;2.00;;;0.90;99.90;;;;;;7395252;19;20655;-78
2024/01/13 04:27:27;;;;;;;2.63;1.93;;;0.90;99.90;;;;;;7395836;19;20146;-79
2024/01/13 04:29:52;;;;;;;3.07;1.90;;;1.00;99.90;;;;;;7396303;19;20532;-79
2024/01/13 04:32:18;;;;;;;1.70;1.60;;;1.00;99.90;;;;;;7395250;19;20149;-79
2024/01/13 04:34:44;;;;;;;2.90;2.27;;;0.90;99.90;;;;;;7392812;19;20158;-79
2024/01/13 04:37:09;;;;;;;3.27;2.47;;;0.90;99.90;;;;;;7394362;19;20889;-78
2024/01/13 04:39:35;;;;;;;1.30;1.20;;;1.00;99.90;;;;;;7396508;19;20143;-78
2024/01/13 04:42:01;;;;;;;2.60;2.37;;;0.10;99.90;;;;;;7394827;19;20524;-78
2024/01/13 04:44:27;;;;;;;5.07;2.17;;;0.20;99.90;;;;;;7397606;19;20462;-77
2024/01/13 04:46:52;;;;;;;3.30;2.63;;;0.50;99.90;;;;;;7393297;19;20179;-76
2024/01/13 04:49:18;;;;;;;1.97;1.47;;;0.70;99.90;;;;;;7394658;19;20209;-78
2024/01/13 04:51:44;;;;;;;2.47;2.27;;;0.70;99.90;;;;;;7394131;19;20158;-79
2024/01/13 04:54:11;;;;;;;2.30;2.10;;;0.30;99.90;;;;;;7392336;19;20138;-78
2024/01/13 04:56:37;;;;;;;3.10;2.73;;;0.10;99.90;;;;;;7392319;19;20135;-77
2024/01/13 04:59:03;;;;;;;4.13;3.17;;;0.40;99.90;;;;;;7395027;19;20162;-78
2024/01/13 05:01:28;;;;;;;3.47;2.67;;;0.40;99.90;;;;;;7394297;19;20158;-78
2024/01/13 05:03:54;;;;;;;3.10;2.37;;;0.20;99.90;;;;;;7394896;19;20852;-79
2024/01/13 05:06:20;;;;;;;2.53;2.37;;;0.10;99.90;;;;;;7393768;19;20147;-77
2024/01/13 05:08:45;;;;;;;4.20;2.57;;;0.50;99.90;;;;;;7395108;19;20139;-79
2024/01/13 05:11:11;;;;;;;3.77;3.43;;;0.60;99.90;;;;;;7392189;19;20158;-80
2024/01/13 05:13:37;;;;;;;2.67;2.47;;;0.80;99.90;;;;;;7392001;19;20146;-78
2024/01/13 05:16:03;;;;;;;3.40;2.47;;;0.50;99.90;;;;;;7393805;19;20564;-80
2024/01/13 05:18:29;;;;;;;1.97;1.77;;;-0.20;99.90;;;;;;7393603;19;20142;-79
2024/01/13 05:20:54;;;;;;;2.53;1.93;;;0.20;99.90;;;;;;7393586;19;20158;-79
2024/01/13 05:23:20;;;;;;;3.60;2.03;;;0.50;99.90;;;;;;7393567;19;20143;-78
2024/01/13 05:25:46;;;;;;;2.97;2.33;;;0.70;99.90;;;;;;7393230;19;20501;-79
2024/01/13 05:28:12;;;;;;;2.80;2.33;;;0.80;99.90;;;;;;7394864;19;20166;-78
2024/01/13 05:30:37;;;;;;;3.00;2.10;;;0.80;99.90;;;;;;7391965;19;20592;-79
2024/01/13 05:33:03;;;;;;;1.63;1.53;;;0.80;99.90;;;;;;7392323;19;20142;-78
2024/01/13 05:35:29;;;;;;;1.13;1.13;;;0.90;99.90;;;;;;7394763;19;20617;-79
2024/01/13 05:37:55;;;;;;;2.80;1.67;;;0.90;99.90;;;;;;7398380;19;20135;-77
2024/01/13 05:40:23;;;;;;;2.50;2.07;;;0.80;99.90;;;;;;7393235;19;20142;-78
2024/01/13 05:42:49;;;;;;;3.80;1.77;;;0.90;99.90;;;;;;7393539;19;20441;-78
2024/01/13 05:45:15;;;;;;;3.13;2.83;;;0.90;99.90;;;;;;7390855;19;20147;-77
2024/01/13 05:47:41;;;;;;;2.67;2.43;;;1.00;99.90;;;;;;7392265;19;20206;-79
2024/01/13 05:50:07;;;;;;;2.07;1.53;;;1.00;99.90;;;;;;7389955;19;20174;-77
2024/01/13 05:52:33;;;;;;;7.13;3.63;;;0.90;99.90;;;;;;7392568;19;20575;-78
2024/01/13 05:55:03;;;;;;;1.27;1.23;;;1.10;99.90;;;;;;7391086;19;20139;-79
2024/01/13 05:57:29;;;;;;;2.33;2.07;;;1.20;99.90;;;;;;7394117;19;20174;-78
2024/01/13 05:59:55;;;;;;;2.53;1.80;;;1.00;99.90;;;;;;7388651;19;20166;-78
2024/01/13 06:02:20;;;;;;;2.30;1.90;;;1.00;99.90;;;;;;7392005;19;20138;-75
2024/01/13 06:04:47;;;;;;;3.07;2.03;;;1.00;99.90;;;;;;7391349;19;20703;-78
2024/01/13 06:07:14;;;;;;;3.07;1.30;;;1.00;99.90;;;;;;7391891;19;20163;-78
2024/01/13 06:09:40;;;;;;;2.67;2.43;;;1.00;99.90;;;;;;7391726;19;20139;-81
2024/01/13 06:12:09;;;;;;;4.27;3.27;;;1.00;99.90;;;;;;7390650;19;20135;-78
2024/01/13 06:14:35;;;;;;;1.63;1.53;;;1.00;99.90;;;;;;7391290;19;20238;-79
2024/01/13 06:17:00;;;;;;;4.13;3.13;;;1.00;99.90;;;;;;7392506;19;20142;-76
2024/01/13 06:19:26;;;;;;;3.03;2.83;;;1.00;99.90;;;;;;7390401;19;20151;-78
2024/01/13 06:21:52;;;;;;;2.87;2.67;;;0.90;99.90;;;;;;7391372;19;20134;-79
2024/01/13 06:24:18;;;;;;;4.60;2.67;;;0.90;99.90;;;;;;7391519;19;20142;-79
2024/01/13 06:26:44;;;;;;;2.23;2.03;;;0.90;99.90;;;;;;7392462;19;20653;-79
2024/01/13 06:29:10;;;;;;;3.13;2.63;;;0.90;99.90;;;;;;7390388;19;20130;-79
2024/01/13 06:31:36;;;;;;;5.90;3.33;;;0.90;99.90;;;;;;7389318;19;20146;-78
2024/01/13 06:34:04;;;;;;;3.50;3.20;;;0.90;99.90;;;;;;7389148;19;20210;-78
2024/01/13 06:36:29;;;;;;;3.30;2.97;;;0.90;99.90;;;;;;7390109;19;20612;-78
2024/01/13 06:38:55;;;;;;;3.77;3.03;;;0.90;99.90;;;;;;7390484;19;20130;-78
2024/01/13 06:41:24;;;;;;;5.60;4.03;;;1.00;99.90;;;;;;7391245;19;20572;-77
2024/01/13 06:43:50;;;;;;;3.20;2.37;;;1.00;99.90;;;;;;7391008;19;20143;-80
2024/01/13 06:46:16;;;;;;;4.13;2.80;;;1.00;99.90;;;;;;7391491;19;20134;-79
2024/01/13 06:48:45;;;;;;;2.83;2.03;;;1.00;99.90;;;;;;7391107;19;20167;-79
2024/01/13 06:51:11;;;;;;;2.63;2.43;;;1.00;99.90;;;;;;7391442;19;20145;-79
2024/01/13 06:53:38;;;;;;;4.27;2.53;;;1.00;99.90;;;;;;7388476;19;20483;-78
2024/01/13 06:56:03;;;;;;;3.17;2.63;;;1.00;99.90;;;;;;7389990;19;20479;-79
2024/01/13 06:58:29;;;;;;;2.10;1.97;;;0.90;99.90;;;;;;7391413;19;20150;-79
2024/01/13 07:00:55;;;;;;;1.63;1.53;;;0.80;99.90;;;;;;7389153;19;20521;-78
2024/01/13 07:03:21;;;;;;;3.43;2.93;;;0.80;99.90;;;;;;7392486;19;20142;-79
2024/01/13 07:05:46;;;;;;;2.80;1.97;;;0.80;99.90;;;;;;7389987;19;20213;-79
2024/01/13 07:08:12;;;;;;;2.90;2.70;;;0.80;99.90;;;;;;7393207;19;20380;-78
2024/01/13 07:10:38;;;;;;;6.43;3.60;;;0.80;99.90;;;;;;7389679;19;20130;-78
2024/01/13 07:13:03;;;;;;;2.60;1.87;;;0.80;99.90;;;;;;7390357;19;20490;-77
2024/01/13 07:15:29;;;;;;;8.67;3.07;;;0.80;99.90;;;;;;7390767;19;20127;-78
2024/01/13 07:17:57;;;;;;;3.83;3.40;;;0.70;99.90;;;;;;7390501;19;20556;-77
2024/01/13 07:20:23;;;;;;;1.90;1.80;;;0.70;99.90;;;;;;7387750;19;20156;-78
2024/01/13 07:22:50;;;;;;;3.13;2.03;;;0.60;99.90;;;;;;7390287;19;20147;-76
2024/01/13 07:25:16;;;;;;;4.23;3.73;;;0.70;99.90;;;;;;7390059;19;20134;-77
2024/01/13 07:27:42;;;;;;;2.13;2.03;;;0.80;99.90;;;;;;7388644;19;20469;-77
2024/01/13 07:30:08;;;;;;;5.20;2.73;;;0.80;99.90;;;;;;7388344;19;20151;-77
2024/01/13 07:32:33;;;;;;;2.77;2.57;;;0.80;99.90;;;;;;7386859;19;20460;-76
2024/01/13 07:34:59;;;;;;;3.50;2.63;;;0.90;99.90;;;;;;7386984;19;20159;-77
2024/01/13 07:37:25;;;;;;;2.23;2.03;;;0.90;99.90;;;;;;7393240;19;20141;-77
2024/01/13 07:39:50;;;;;;;3.77;2.77;;;0.80;99.90;;;;;;7386022;19;20149;-77
2024/01/13 07:42:19;;;;;;;3.77;3.43;;;0.90;99.90;;;;;;7384897;19;20151;-76
2024/01/13 07:44:48;;;;;;;4.20;2.37;;;0.80;99.90;;;;;;7388082;19;20142;-77
2024/01/13 07:47:13;;;;;;;1.70;1.60;;;0.80;99.90;;;;;;7388497;19;20142;-78
2024/01/13 07:49:39;;;;;;;2.23;2.00;;;1.00;99.90;;;;;;7385055;19;20812;-78
2024/01/13 07:52:06;;;;;;;1.83;1.73;;;0.80;99.90;;;;;;7387671;19;20170;-77
2024/01/13 07:54:33;;;;;;;2.40;2.20;;;0.80;99.90;;;;;;7387253;19;20611;-77
2024/01/13 07:56:59;;;;;;;3.80;3.10;;;0.60;99.90;;;;;;7400262;19;20147;-77
2024/01/13 07:59:25;;;;;;;2.63;1.70;;;0.70;99.90;;;;;;7402274;19;20137;-78
2024/01/13 08:01:51;;;;;;;4.43;2.80;;;0.80;99.90;;;;;;7399057;19;20253;-76
2024/01/13 08:04:18;;;;;;;3.50;1.97;;;0.80;99.90;;;;;;7402397;19;20174;-76
2024/01/13 08:06:44;;;;;;;3.40;2.77;;;0.80;99.90;;;;;;7400884;19;20157;-75
2024/01/13 08:09:09;;;;;;;14.95;7.10;;;0.80;99.90;;;;;;7399648;19;20404;-77
2024/01/13 08:11:35;;;;;;;4.23;3.13;;;0.90;99.90;;;;;;7403918;19;20126;-76
2024/01/13 08:14:01;;;;;;;2.90;2.60;;;0.90;99.90;;;;;;7399325;19;20127;-77
2024/01/13 08:16:27;;;;;;;2.80;2.37;;;0.80;99.90;;;;;;7398713;19;20151;-77
2024/01/13 08:18:53;;;;;;;2.00;1.47;;;0.80;99.90;;;;;;7400582;19;20600;-76
2024/01/13 08:21:18;;;;;;;2.77;2.07;;;0.90;99.90;;;;;;7401830;19;20152;-75
2024/01/13 08:23:44;;;;;;;10.47;5.83;;;0.90;99.90;;;;;;7403046;19;20790;-75
2024/01/13 08:26:10;;;;;;;4.70;3.67;;;0.90;99.90;;;;;;7400959;19;20142;-76
2024/01/13 08:28:36;;;;;;;4.43;2.70;;;0.90;99.90;;;;;;7401930;19;20189;-76
2024/01/13 08:31:01;;;;;;;6.27;2.70;;;0.90;99.90;;;;;;7401709;19;20765;-77
2024/01/13 08:33:27;;;;;;;2.03;1.90;;;1.00;99.90;;;;;;7403158;19;20805;-77
2024/01/13 08:35:53;;;;;;;1.47;1.27;;;1.00;99.90;;;;;;7401276;19;20980;-78
2024/01/13 08:38:19;;;;;;;2.33;2.03;;;1.00;99.90;;;;;;7402251;19;20135;-77
2024/01/13 08:40:45;;;;;;;1.73;1.60;;;1.10;99.90;;;;;;7403100;19;20595;-77
2024/01/13 08:43:11;;;;;;;3.37;1.80;;;1.10;99.90;;;;;;7401936;19;20233;-78
2024/01/13 08:46:01;;;;;;;3.60;1.93;;;1.10;99.90;;;;;;7402215;19;20234;-79
2024/01/13 08:48:37;;;;;;;1.57;1.47;;;1.10;99.90;;;;;;7405331;19;20134;-82
2024/01/13 08:51:09;;;;;;;2.87;2.13;;;1.10;99.90;;;;;;7405384;19;20172;-78
2024/01/13 08:53:39;;;;;;;3.20;2.10;;;1.10;99.90;;;;;;7403519;19;20150;-81
2024/01/13 08:56:06;;;;;;;2.27;2.07;;;1.20;99.90;;;;;;7411680;19;20130;-79
2024/01/13 08:58:32;;;;;;;1.23;1.07;;;1.20;99.90;;;;;;7402746;19;20138;-78
2024/01/13 09:00:58;;;;;;;4.47;2.00;;;1.20;99.90;;;;;;7402768;19;20139;-79
2024/01/13 09:03:25;;;;;;;2.00;1.47;;;1.20;99.90;;;;;;7404510;19;20178;-77
2024/01/13 09:05:51;;;;;;;2.27;2.07;;;1.20;99.90;;;;;;7403463;19;20676;-76
2024/01/13 09:08:17;;;;;;;2.50;2.30;;;1.20;99.90;;;;;;7395153;19;20131;-78
2024/01/13 09:10:44;;;;;;;1.47;1.37;;;1.30;99.90;;;;;;7391959;19;20234;-76
2024/01/13 09:13:10;;;;;;;0.83;0.83;;;1.30;99.90;;;;;;7394574;19;20166;-77
2024/01/13 09:15:36;;;;;;;2.33;2.00;;;1.30;99.90;;;;;;7393255;19;20142;-78
2024/01/13 09:18:03;;;;;;;0.50;0.50;;;1.30;99.90;;;;;;7396798;19;20604;-78
2024/01/13 09:20:29;;;;;;;0.43;0.43;;;1.30;99.90;;;;;;7392847;19;20235;-76
2024/01/13 09:22:55;;;;;;;0.47;0.47;;;1.30;99.90;;;;;;7395650;19;20143;-78
2024/01/13 09:25:21;;;;;;;1.60;1.07;;;0.90;99.90;;;;;;7394265;19;20163;-78
2024/01/13 09:27:47;;;;;;;1.40;0.90;;;0.60;99.90;;;;;;7394390;19;20493;-78
2024/01/13 09:30:13;;;;;;;0.60;0.60;;;0.90;99.90;;;;;;7394051;19;20150;-79
2024/01/13 09:32:38;;;;;;;0.90;0.90;;;1.10;99.90;;;;;;7393957;19;20186;-79
2024/01/13 09:35:08;;;;;;;1.13;0.73;;;1.20;99.90;;;;;;7394537;19;20166;-78
2024/01/13 09:37:34;;;;;;;1.27;1.00;;;1.30;99.90;;;;;;7393909;19;20146;-76
2024/01/13 09:40:00;;;;;;;0.83;0.83;;;1.30;99.90;;;;;;7391855;19;20147;-76
2024/01/13 09:42:37;;;;;;;0.83;0.43;;;1.40;99.90;;;;;;7393003;19;20146;-76
2024/01/13 09:45:06;;;;;;;0.70;0.70;;;1.40;99.90;;;;;;7392874;19;20181;-80
2024/01/13 09:47:33;;;;;;;0.77;0.70;;;1.30;99.90;;;;;;7393422;19;20139;-78
2024/01/13 09:50:04;;;;;;;0.60;0.60;;;1.30;99.90;;;;;;7392265;19;20158;-80
2024/01/13 09:52:31;;;;;;;1.00;0.90;;;1.40;99.90;;;;;;7394179;19;20146;-80
2024/01/13 09:55:03;;;;;;;0.93;0.77;;;1.40;99.90;;;;;;7396948;19;20162;-79
2024/01/13 09:57:29;;;;;;;0.97;0.93;;;1.50;99.90;;;;;;7394534;19;20159;-79
2024/01/13 09:59:54;;;;;;;0.83;0.83;;;1.50;99.90;;;;;;7392132;19;20584;-77
2024/01/13 10:02:20;;;;;;;0.40;0.40;;;1.40;99.90;;;;;;7392579;19;20179;-78
2024/01/13 10:04:46;;;;;;;0.47;0.47;;;1.40;99.90;;;;;;7392303;19;20147;-77
2024/01/13 10:07:12;;;;;;;1.07;0.97;;;1.50;99.90;;;;;;7391903;19;20596;-78
2024/01/13 10:09:38;;;;;;;1.27;1.17;;;1.40;99.90;;;;;;7388526;19;20139;-78
2024/01/13 10:12:08;;;;;;;1.37;0.77;;;1.40;99.90;;;;;;7386741;19;20147;-77
2024/01/13 10:17:33;;;;;;;0.67;0.50;;;1.30;99.90;;;;;;7393361;19;20138;-80
2024/01/13 10:20:00;;;;;;;1.13;1.03;;;1.50;99.90;;;;;;7392326;19;20131;-75
2024/01/13 10:22:25;;;;;;;0.77;0.77;;;1.50;99.90;;;;;;7393594;19;20453;-76
2024/01/13 10:24:52;;;;;;;1.90;1.10;;;1.50;99.90;;;;;;7390735;19;20160;-76
2024/01/13 10:27:20;;;;;;;2.17;0.80;;;1.50;99.90;;;;;;7393313;19;20142;-79
2024/01/13 10:29:48;;;;;;;1.47;1.37;;;1.50;99.90;;;;;;7392052;19;20138;-78
2024/01/13 10:32:15;;;;;;;0.97;0.97;;;1.60;99.90;;;;;;7392021;19;20126;-77
2024/01/13 10:34:46;;;;;;;1.77;1.67;;;1.70;99.90;;;;;;7391833;19;20147;-77
2024/01/13 10:37:13;;;;;;;0.77;0.77;;;1.60;99.90;;;;;;7392826;19;20238;-77
2024/01/13 10:39:40;;;;;;;0.80;0.70;;;1.60;99.90;;;;;;7391061;19;20147;-79
2024/01/13 10:42:09;;;;;;;0.60;0.50;;;1.60;99.90;;;;;;7392207;19;20472;-79
2024/01/13 10:44:43;;;;;;;1.60;0.93;;;1.50;99.90;;;;;;7392827;19;20142;-77
2024/01/13 10:47:14;;;;;;;2.90;2.07;;;1.50;99.90;;;;;;7391579;19;20148;-79
2024/01/13 10:49:45;;;;;;;2.27;1.47;;;1.40;99.90;;;;;;7386577;19;20181;-76
2024/01/13 10:52:13;;;;;;;1.00;1.00;;;1.40;99.90;;;;;;7388090;19;20152;-78
2024/01/13 10:54:40;;;;;;;1.33;1.17;;;1.50;99.90;;;;;;7387848;19;20635;-76
2024/01/13 10:57:14;;;;;;;1.27;0.90;;;1.60;99.90;;;;;;7389974;19;20502;-77
2024/01/13 10:59:43;;;;;;;1.23;1.13;;;1.60;99.90;;;;;;7387656;19;20152;-78
2024/01/13 11:02:12;;;;;;;3.53;1.27;;;1.60;99.90;;;;;;7396423;19;20205;-78
2024/01/13 11:04:38;;;;;;;2.63;1.30;;;1.60;99.90;;;;;;7392024;19;20232;-78
2024/01/13 11:07:04;;;;;;;0.67;0.67;;;1.60;99.90;;;;;;7391249;19;20131;-80
2024/01/13 11:09:30;;;;;;;1.67;1.17;;;1.70;99.90;;;;;;7388983;19;20129;-78
2024/01/13 11:12:09;;;;;;;0.80;0.80;;;1.60;99.90;;;;;;7389079;19;20174;-77
2024/01/13 11:14:39;;;;;;;0.40;0.40;;;1.60;99.90;;;;;;7389920;19;20126;-78
2024/01/13 11:17:09;;;;;;;2.40;1.50;;;1.60;99.90;;;;;;7390656;19;20138;-77
2024/01/13 11:19:37;;;;;;;0.50;0.50;;;1.60;99.90;;;;;;7389181;19;20154;-78
2024/01/13 11:22:31;;;;;;;2.93;2.17;;;1.60;99.90;;;;;;7389415;19;20776;-79
2024/01/13 11:24:57;;;;;;;1.20;0.90;;;1.60;99.90;;;;;;7385153;19;20622;-79
2024/01/13 11:27:23;;;;;;;1.90;1.00;;;1.60;99.90;;;;;;7388536;19;20158;-78
2024/01/13 11:29:49;;;;;;;0.90;0.90;;;1.60;99.90;;;;;;7386305;19;20449;-76
2024/01/13 11:32:15;;;;;;;0.57;0.57;;;1.70;99.90;;;;;;7390010;19;20515;-83
2024/01/13 11:34:41;;;;;;;2.47;1.03;;;1.70;99.90;;;;;;7379038;19;20222;-75
2024/01/13 11:37:10;;;;;;;1.33;1.23;;;1.70;99.90;;;;;;7383077;19;20600;-78
2024/01/13 11:39:36;;;;;;;1.10;1.00;;;1.70;99.90;;;;;;7384533;19;20141;-77
2024/01/13 11:42:05;;;;;;;1.20;0.77;;;1.80;99.90;;;;;;7383677;19;20583;-77
2024/01/13 11:44:34;;;;;;;0.93;0.70;;;1.70;99.90;;;;;;7387422;19;20131;-77
2024/01/13 11:47:00;;;;;;;1.33;1.23;;;1.80;99.90;;;;;;7387606;19;20146;-76
2024/01/13 11:49:30;;;;;;;1.10;1.00;;;1.80;99.90;;;;;;7388477;19;20187;-77
2024/01/13 11:52:03;;;;;;;1.30;1.00;;;1.80;99.90;;;;;;7387074;19;20626;-77
2024/01/13 11:54:30;;;;;;;2.77;1.80;;;1.70;99.90;;;;;;7382085;19;20146;-78
2024/01/13 11:56:57;;;;;;;0.87;0.87;;;1.70;99.90;;;;;;7386454;19;20146;-77
2024/01/13 11:59:24;;;;;;;2.73;1.77;;;1.70;99.90;;;;;;7383453;19;20154;-78
2024/01/13 12:01:52;;;;;;;1.07;0.73;;;1.50;99.90;;;;;;7387706;19;20135;-77
2024/01/13 12:04:17;;;;;;;1.47;0.73;;;1.50;99.90;;;;;;7388349;19;20187;-78
2024/01/13 12:06:45;;;;;;;1.63;1.53;;;1.60;99.90;;;;;;7386871;19;20142;-80
2024/01/13 12:09:12;;;;;;;0.83;0.83;;;1.70;99.90;;;;;;7388119;19;20143;-77
2024/01/13 12:11:49;;;;;;;1.20;0.87;;;1.80;99.90;;;;;;7382391;19;20146;-82
2024/01/13 12:14:15;;;;;;;0.63;0.63;;;1.80;99.90;;;;;;7387236;19;20154;-77
2024/01/13 12:16:40;;;;;;;2.43;1.77;;;1.80;99.90;;;;;;7390062;19;20264;-79
2024/01/13 12:19:06;;;;;;;0.93;0.93;;;1.80;99.90;;;;;;7389908;19;20143;-79
2024/01/13 12:21:35;;;;;;;1.40;1.27;;;1.90;99.90;;;;;;7384807;19;20135;-77
2024/01/13 12:24:02;;;;;;;0.80;0.77;;;1.80;99.90;;;;;;7386471;19;20230;-79
2024/01/13 12:26:29;;;;;;;0.90;0.90;;;1.70;99.90;;;;;;7386198;19;20142;-78
2024/01/13 12:28:56;;;;;;;1.83;1.53;;;1.70;99.90;;;;;;7384285;19;20130;-78
2024/01/13 12:31:23;;;;;;;1.87;1.77;;;1.80;99.90;;;;;;7387946;19;20218;-78
2024/01/13 12:33:49;;;;;;;1.50;0.97;;;1.90;99.90;;;;;;7386094;19;20138;-79
2024/01/13 12:36:15;;;;;;;1.57;1.47;;;1.90;99.90;;;;;;7382174;19;20146;-79
2024/01/13 12:38:41;;;;;;;1.60;1.50;;;1.90;99.90;;;;;;7382549;19;20158;-79
2024/01/13 12:41:07;;;;;;;0.70;0.70;;;1.90;99.90;;;;;;7386498;19;20614;-79
2024/01/13 12:43:33;;;;;;;1.83;0.80;;;1.90;99.90;;;;;;7392850;19;20173;-79
2024/01/13 12:45:59;;;;;;;1.90;1.80;;;1.90;99.90;;;;;;7396539;19;20139;-79
2024/01/13 12:48:25;;;;;;;0.83;0.83;;;1.90;99.90;;;;;;7396106;19;20139;-78
2024/01/13 12:50:51;;;;;;;1.07;0.87;;;1.90;99.90;;;;;;7391359;19;20150;-78
2024/01/13 12:53:27;;;;;;;1.97;1.50;;;1.90;99.90;;;;;;7392057;19;20659;-79
2024/01/13 12:55:54;;;;;;;0.87;0.87;;;1.90;99.90;;;;;;7395279;19;20631;-79
2024/01/13 12:58:19;;;;;;;0.80;0.73;;;1.90;99.90;;;;;;7392852;19;20146;-79